createdAt,value
2022-08-17T00:02:26.092Z,11.00
2022-08-17T00:04:55.141Z,11.00
2022-08-17T00:07:23.066Z,10.90
2022-08-17T00:09:50.424Z,10.90
2022-08-17T00:12:43.317Z,10.90
2022-08-17T00:15:06.374Z,10.90
2022-08-17T00:17:38.118Z,10.90
2022-08-17T00:20:05.857Z,10.80
2022-08-17T00:22:36.401Z,10.80
2022-08-17T00:25:10.393Z,10.80
2022-08-17T00:27:37.374Z,10.80
2022-08-17T00:30:07.238Z,10.80
2022-08-17T00:33:15.778Z,10.80
2022-08-17T00:35:30.395Z,10.70
2022-08-17T00:37:57.373Z,10.80
2022-08-17T00:40:24.573Z,10.70
2022-08-17T00:42:53.578Z,10.70
2022-08-17T00:45:20.742Z,10.70
2022-08-17T00:47:47.921Z,10.70
2022-08-17T00:50:17.866Z,10.70
2022-08-17T00:52:56.527Z,10.70
2022-08-17T00:55:25.663Z,10.70
2022-08-17T00:57:58.631Z,10.60
2022-08-17T01:00:36.183Z,10.60
2022-08-17T01:03:10.770Z,10.60
2022-08-17T01:05:42.143Z,10.60
2022-08-17T01:08:13.257Z,10.60
2022-08-17T01:10:58.481Z,10.60
2022-08-17T01:13:40.331Z,10.50
2022-08-17T01:16:29.823Z,10.50
2022-08-17T01:19:05.311Z,10.50
2022-08-17T01:21:56.920Z,10.50
2022-08-17T01:24:24.301Z,10.50
2022-08-17T01:26:51.326Z,10.50
2022-08-17T01:29:20.424Z,10.40
2022-08-17T01:31:56.892Z,10.40
2022-08-17T01:34:37.376Z,10.50
2022-08-17T01:37:11.541Z,10.40
2022-08-17T01:39:50.586Z,10.40
2022-08-17T01:42:30.904Z,10.40
2022-08-17T01:45:02.255Z,10.40
2022-08-17T01:47:29.853Z,10.40
2022-08-17T01:49:58.349Z,10.30
2022-08-17T01:52:25.356Z,10.30
2022-08-17T01:54:53.467Z,10.40
2022-08-17T01:57:20.489Z,10.30
2022-08-17T01:59:47.847Z,10.40
2022-08-17T02:02:31.358Z,10.40
2022-08-17T02:04:59.060Z,10.40
2022-08-17T02:07:27.079Z,10.40
2022-08-17T02:09:54.584Z,10.50
2022-08-17T02:12:37.603Z,10.50
2022-08-17T02:15:07.991Z,10.50
2022-08-17T02:17:35.289Z,10.50
2022-08-17T02:20:02.469Z,10.50
2022-08-17T02:22:29.648Z,10.60
2022-08-17T02:24:59.705Z,10.60
2022-08-17T02:27:29.238Z,10.50
2022-08-17T02:29:56.305Z,10.50
2022-08-17T02:32:27.940Z,10.50
2022-08-17T02:34:58.422Z,10.50
2022-08-17T02:37:27.238Z,10.40
2022-08-17T02:39:57.227Z,10.40
2022-08-17T02:42:34.787Z,10.40
2022-08-17T02:45:02.671Z,10.30
2022-08-17T02:47:29.972Z,10.30
2022-08-17T02:49:57.059Z,10.20
2022-08-17T02:52:42.646Z,10.20
2022-08-17T02:55:19.479Z,10.20
2022-08-17T02:57:47.080Z,10.10
2022-08-17T03:00:21.298Z,10.10
2022-08-17T03:02:49.154Z,10.10
2022-08-17T03:05:20.728Z,10.10
2022-08-17T03:07:48.047Z,10.00
2022-08-17T03:10:15.489Z,10.00
2022-08-17T03:12:43.491Z,10.00
2022-08-17T03:15:23.270Z,10.00
2022-08-17T03:17:52.169Z,10.00
2022-08-17T03:20:20.714Z,10.10
2022-08-17T03:22:53.622Z,10.00
2022-08-17T03:25:27.998Z,10.10
2022-08-17T03:27:56.865Z,10.10
2022-08-17T03:30:25.554Z,10.20
2022-08-17T03:32:55.298Z,10.20
2022-08-17T03:35:27.086Z,10.30
2022-08-17T03:38:00.669Z,10.30
2022-08-17T03:40:55.260Z,10.30
2022-08-17T03:43:17.270Z,10.40
2022-08-17T03:46:02.542Z,10.40
2022-08-17T03:48:48.353Z,10.40
2022-08-17T03:51:41.093Z,10.40
2022-08-17T03:54:28.445Z,10.50
2022-08-17T03:57:10.186Z,10.50
2022-08-17T03:59:38.409Z,10.50
2022-08-17T04:02:13.158Z,10.50
2022-08-17T04:04:40.537Z,10.50
2022-08-17T04:07:07.994Z,10.50
2022-08-17T04:09:35.163Z,10.50
2022-08-17T04:12:04.745Z,10.50
2022-08-17T04:14:51.468Z,10.60
2022-08-17T04:17:24.969Z,10.50
2022-08-17T04:19:52.303Z,10.50
2022-08-17T04:22:30.353Z,10.50
2022-08-17T04:25:02.786Z,10.50
2022-08-17T04:27:29.969Z,10.50
2022-08-17T04:29:57.027Z,10.50
2022-08-17T04:32:25.201Z,10.50
2022-08-17T04:35:11.419Z,10.50
2022-08-17T04:37:38.434Z,10.50
2022-08-17T04:40:26.505Z,10.50
2022-08-17T04:43:12.972Z,10.50
2022-08-17T04:46:08.053Z,10.50
2022-08-17T04:48:44.221Z,10.50
2022-08-17T04:51:24.378Z,10.60
2022-08-17T04:53:55.013Z,10.60
2022-08-17T04:56:23.821Z,10.70
2022-08-17T04:58:52.879Z,10.70
2022-08-17T05:01:23.994Z,10.80
2022-08-17T05:03:53.755Z,10.80
2022-08-17T05:06:21.168Z,10.80
2022-08-17T05:08:48.251Z,10.80
2022-08-17T05:11:15.945Z,10.90
2022-08-17T05:13:43.593Z,10.90
2022-08-17T05:16:10.999Z,10.90
2022-08-17T05:18:39.025Z,11.00
2022-08-17T05:21:07.093Z,11.00
2022-08-17T05:23:42.765Z,11.00
2022-08-17T05:26:13.566Z,11.00
2022-08-17T05:28:53.168Z,11.00
2022-08-17T05:31:21.475Z,11.00
2022-08-17T05:33:49.585Z,11.00
2022-08-17T05:36:43.022Z,11.00
2022-08-17T05:39:04.237Z,11.00
2022-08-17T05:41:31.448Z,11.10
2022-08-17T05:43:58.476Z,11.10
2022-08-17T05:46:36.027Z,11.10
2022-08-17T05:49:08.057Z,11.10
2022-08-17T05:51:55.906Z,11.20
2022-08-17T05:54:55.237Z,11.10
2022-08-17T05:57:56.894Z,11.10
2022-08-17T06:01:03.749Z,11.20
2022-08-17T06:03:59.743Z,11.20
2022-08-17T06:06:44.919Z,11.30
2022-08-17T06:09:36.565Z,11.30
2022-08-17T06:12:21.879Z,11.40
2022-08-17T06:15:03.923Z,11.40
2022-08-17T06:17:31.636Z,11.40
2022-08-17T06:20:03.886Z,11.40
2022-08-17T06:22:41.912Z,11.50
2022-08-17T06:25:22.910Z,11.50
2022-08-17T06:28:09.495Z,11.60
2022-08-17T06:31:00.154Z,11.60
2022-08-17T06:33:36.227Z,11.60
2022-08-17T06:36:45.178Z,11.70
2022-08-17T06:39:22.182Z,11.70
2022-08-17T06:42:59.888Z,11.70
2022-08-17T06:45:31.395Z,11.70
2022-08-17T06:48:25.078Z,11.80
2022-08-17T06:51:22.342Z,11.80
2022-08-17T06:53:53.804Z,11.80
2022-08-17T06:56:54.115Z,11.80
2022-08-17T06:59:55.025Z,11.80
2022-08-17T07:02:29.421Z,11.70
2022-08-17T07:05:18.539Z,11.70
2022-08-17T07:08:04.051Z,11.80
2022-08-17T07:11:05.422Z,11.90
2022-08-17T07:13:38.586Z,11.90
2022-08-17T07:16:49.093Z,11.90
2022-08-17T07:19:18.463Z,11.90
2022-08-17T07:22:14.104Z,12.00
2022-08-17T07:24:58.749Z,12.00
2022-08-17T07:27:33.936Z,12.00
2022-08-17T07:30:08.125Z,12.20
2022-08-17T07:32:45.438Z,12.20
2022-08-17T07:35:17.824Z,12.20
2022-08-17T07:37:55.850Z,12.20
2022-08-17T07:40:27.146Z,12.40
2022-08-17T07:43:23.035Z,12.50
2022-08-17T07:46:34.271Z,12.50
2022-08-17T07:49:07.624Z,12.70
2022-08-17T07:51:39.800Z,12.80
2022-08-17T07:54:16.005Z,12.90
2022-08-17T07:56:53.831Z,12.90
2022-08-17T07:59:24.902Z,13.10
2022-08-17T08:01:58.166Z,13.20
2022-08-17T08:04:59.361Z,13.40
2022-08-17T08:07:27.005Z,13.40
2022-08-17T08:10:11.000Z,13.40
2022-08-17T08:12:47.631Z,13.50
2022-08-17T08:15:19.776Z,13.50
2022-08-17T08:17:50.878Z,13.60
2022-08-17T08:20:52.762Z,13.70
2022-08-17T08:23:35.441Z,13.70
2022-08-17T08:26:30.502Z,13.60
2022-08-17T08:29:09.356Z,13.80
2022-08-17T08:31:42.354Z,13.90
2022-08-17T08:34:59.016Z,13.90
2022-08-17T08:37:30.491Z,14.00
2022-08-17T08:40:12.547Z,14.20
2022-08-17T08:43:08.425Z,14.30
2022-08-17T08:45:56.779Z,14.10
2022-08-17T08:49:10.189Z,14.10
2022-08-17T08:52:01.098Z,14.20
2022-08-17T08:54:48.060Z,13.90
2022-08-17T08:57:29.380Z,14.00
2022-08-17T09:00:06.106Z,13.90
2022-08-17T09:03:04.152Z,13.90
2022-08-17T09:05:49.247Z,14.00
2022-08-17T09:08:47.402Z,14.00
2022-08-17T09:11:35.715Z,14.10
2022-08-17T09:14:32.695Z,14.00
2022-08-17T09:17:25.549Z,14.40
2022-08-17T09:20:04.367Z,14.40
2022-08-17T09:22:41.793Z,14.50
2022-08-17T09:25:26.462Z,14.80
2022-08-17T09:28:03.864Z,14.90
2022-08-17T09:31:11.554Z,14.70
2022-08-17T09:33:44.415Z,14.70
2022-08-17T09:36:34.830Z,15.00
2022-08-17T09:39:17.482Z,15.40
2022-08-17T09:42:13.969Z,15.70
2022-08-17T09:45:02.947Z,15.60
2022-08-17T09:47:45.531Z,15.40
2022-08-17T09:51:03.798Z,15.70
2022-08-17T09:53:11.743Z,15.80
2022-08-17T09:56:05.977Z,15.90
2022-08-17T09:58:56.943Z,16.00
2022-08-17T10:01:56.267Z,16.00
2022-08-17T10:04:42.141Z,16.00
2022-08-17T10:07:23.370Z,16.10
2022-08-17T10:10:14.418Z,16.10
2022-08-17T10:12:59.034Z,16.20
2022-08-17T10:15:55.190Z,16.10
2022-08-17T10:18:30.368Z,16.40
2022-08-17T10:21:37.320Z,16.60
2022-08-17T10:25:21.187Z,16.60
2022-08-17T10:27:52.389Z,17.00
2022-08-17T10:30:23.322Z,17.40
2022-08-17T10:32:55.845Z,17.60
2022-08-17T10:35:30.770Z,17.70
2022-08-17T10:38:12.723Z,17.90
2022-08-17T10:41:13.627Z,18.00
2022-08-17T10:44:38.120Z,18.00
2022-08-17T10:47:18.076Z,18.40
2022-08-17T10:49:49.759Z,18.80
2022-08-17T10:52:20.151Z,18.70
2022-08-17T10:54:57.896Z,18.90
2022-08-17T10:57:31.892Z,18.80
2022-08-17T11:00:17.995Z,18.70
2022-08-17T11:02:50.612Z,18.80
2022-08-17T11:05:27.712Z,19.20
2022-08-17T11:08:22.579Z,19.60
2022-08-17T11:11:16.486Z,19.90
2022-08-17T11:14:09.986Z,20.10
2022-08-17T11:17:01.290Z,20.40
2022-08-17T11:19:31.357Z,19.90
2022-08-17T11:22:33.330Z,20.10
2022-08-17T11:25:19.371Z,20.50
2022-08-17T11:27:53.809Z,21.00
2022-08-17T11:30:43.574Z,21.10
2022-08-17T11:33:29.764Z,20.80
2022-08-17T11:36:16.163Z,20.70
2022-08-17T11:38:59.907Z,21.10
2022-08-17T11:41:47.159Z,21.90
2022-08-17T11:44:50.600Z,22.60
2022-08-17T11:48:16.037Z,22.80
2022-08-17T11:51:29.370Z,23.30
2022-08-17T11:54:31.154Z,23.80
2022-08-17T11:56:53.014Z,23.90
2022-08-17T11:59:43.911Z,23.40
2022-08-17T12:02:32.501Z,23.00
2022-08-17T12:05:13.242Z,22.80
2022-08-17T12:08:05.712Z,23.80
2022-08-17T12:10:36.025Z,24.10
2022-08-17T12:13:12.823Z,25.10
2022-08-17T12:15:48.834Z,26.20
2022-08-17T12:18:37.743Z,26.30
2022-08-17T12:21:22.404Z,26.60
2022-08-17T12:24:13.847Z,27.60
2022-08-17T12:26:44.139Z,26.70
2022-08-17T12:29:18.101Z,26.20
2022-08-17T12:32:07.035Z,25.30
2022-08-17T12:34:42.004Z,25.00
2022-08-17T12:37:20.612Z,24.70
2022-08-17T12:39:59.741Z,24.50
2022-08-17T12:42:37.582Z,24.10
2022-08-17T12:45:29.620Z,23.50
2022-08-17T12:48:08.726Z,23.00
2022-08-17T12:50:40.969Z,23.40
2022-08-17T12:53:17.452Z,24.00
2022-08-17T12:55:45.772Z,25.50
2022-08-17T12:58:18.081Z,26.50
2022-08-17T13:01:09.320Z,24.70
2022-08-17T13:03:44.226Z,25.10
2022-08-17T13:06:25.545Z,25.30
2022-08-17T13:08:52.659Z,25.70
2022-08-17T13:11:24.666Z,27.80
2022-08-17T13:13:56.111Z,28.70
2022-08-17T13:16:26.824Z,29.50
2022-08-17T13:18:55.649Z,30.30
2022-08-17T13:21:30.781Z,31.80
2022-08-17T13:24:06.507Z,32.90
2022-08-17T13:26:36.871Z,33.40
2022-08-17T13:29:18.559Z,33.10
2022-08-17T13:31:52.827Z,32.50
2022-08-17T13:34:29.725Z,33.50
2022-08-17T13:37:19.350Z,34.70
2022-08-17T13:39:50.149Z,36.00
2022-08-17T13:42:52.357Z,36.30
2022-08-17T13:45:36.872Z,36.20
2022-08-17T13:48:27.181Z,35.20
2022-08-17T13:50:57.129Z,34.80
2022-08-17T13:53:47.684Z,33.70
2022-08-17T13:56:47.688Z,32.30
2022-08-17T13:59:52.776Z,32.90
2022-08-17T14:02:14.892Z,34.40
2022-08-17T14:04:44.355Z,34.50
2022-08-17T14:07:13.026Z,35.50
2022-08-17T14:09:52.873Z,35.30
2022-08-17T14:12:25.111Z,35.40
2022-08-17T14:14:55.082Z,35.60
2022-08-17T14:17:23.353Z,35.90
2022-08-17T14:19:51.370Z,36.30
2022-08-17T14:22:28.032Z,36.10
2022-08-17T14:24:58.671Z,35.60
2022-08-17T14:27:28.275Z,34.50
2022-08-17T14:29:56.550Z,34.60
2022-08-17T14:32:27.155Z,33.80
2022-08-17T14:34:57.765Z,34.30
2022-08-17T14:37:28.056Z,34.80
2022-08-17T14:39:57.441Z,34.80
2022-08-17T14:42:26.584Z,35.30
2022-08-17T14:44:54.888Z,35.60
2022-08-17T14:47:22.036Z,35.40
2022-08-17T14:49:49.493Z,35.50
2022-08-17T14:52:22.605Z,34.70
2022-08-17T14:54:54.186Z,35.20
2022-08-17T14:57:33.052Z,35.10
2022-08-17T15:00:02.187Z,33.10
2022-08-17T15:02:30.918Z,32.50
2022-08-17T15:05:06.152Z,33.50
2022-08-17T15:07:33.188Z,33.90
2022-08-17T15:10:02.096Z,34.10
2022-08-17T15:12:33.295Z,35.00
2022-08-17T15:15:04.808Z,35.50
2022-08-17T15:17:44.485Z,35.00
2022-08-17T15:20:21.452Z,35.10
2022-08-17T15:22:55.754Z,35.10
2022-08-17T15:25:25.498Z,34.80
2022-08-17T15:27:52.911Z,34.80
2022-08-17T15:30:20.821Z,34.60
2022-08-17T15:32:54.565Z,34.60
2022-08-17T15:35:27.920Z,34.40
2022-08-17T15:38:10.568Z,33.90
2022-08-17T15:40:46.323Z,33.60
2022-08-17T15:43:27.236Z,33.20
2022-08-17T15:46:01.998Z,32.70
2022-08-17T15:48:41.697Z,32.50
2022-08-17T15:51:17.649Z,32.10
2022-08-17T15:53:47.013Z,32.00
2022-08-17T15:56:15.023Z,31.60
2022-08-17T15:58:46.920Z,31.10
2022-08-17T16:01:31.349Z,30.50
2022-08-17T16:04:26.426Z,29.90
2022-08-17T16:06:51.683Z,29.80
2022-08-17T16:09:18.730Z,29.60
2022-08-17T16:11:46.156Z,29.00
2022-08-17T16:14:20.836Z,28.50
2022-08-17T16:16:48.249Z,28.40
2022-08-17T16:19:15.637Z,28.80
2022-08-17T16:21:52.809Z,28.90
2022-08-17T16:24:19.726Z,28.70
2022-08-17T16:26:47.214Z,28.60
2022-08-17T16:29:15.351Z,28.40
2022-08-17T16:31:43.368Z,28.00
2022-08-17T16:34:17.924Z,27.90
2022-08-17T16:36:54.584Z,27.40
2022-08-17T16:39:26.925Z,27.20
2022-08-17T16:41:54.253Z,27.10
2022-08-17T16:44:21.914Z,26.90
2022-08-17T16:46:50.438Z,25.90
2022-08-17T16:49:35.896Z,25.80
2022-08-17T16:52:04.718Z,25.70
2022-08-17T16:54:32.015Z,25.60
2022-08-17T16:56:59.289Z,25.30
2022-08-17T16:59:30.855Z,24.60
2022-08-17T17:02:04.982Z,24.10
2022-08-17T17:04:35.054Z,23.80
2022-08-17T17:07:34.397Z,23.50
2022-08-17T17:10:14.333Z,23.40
2022-08-17T17:13:03.695Z,23.10
2022-08-17T17:15:39.770Z,23.00
2022-08-17T17:18:12.760Z,22.40
2022-08-17T17:21:12.370Z,22.40
2022-08-17T17:23:53.624Z,22.30
2022-08-17T17:26:23.874Z,21.80
2022-08-17T17:29:29.240Z,20.90
2022-08-17T17:32:40.690Z,20.80
2022-08-17T17:35:23.011Z,20.60
2022-08-17T17:37:52.155Z,20.70
2022-08-17T17:40:44.422Z,19.70
2022-08-17T17:43:37.846Z,19.10
2022-08-17T17:46:27.192Z,19.60
2022-08-17T17:48:57.091Z,19.30
2022-08-17T17:52:06.745Z,18.80
2022-08-17T17:54:36.976Z,19.10
2022-08-17T17:57:21.424Z,19.20
2022-08-17T18:00:04.438Z,19.10
2022-08-17T18:02:51.774Z,19.00
2022-08-17T18:05:46.509Z,18.80
2022-08-17T18:08:16.465Z,18.90
2022-08-17T18:10:58.112Z,18.90
2022-08-17T18:13:37.048Z,18.50
2022-08-17T18:16:06.833Z,18.20
2022-08-17T18:18:39.205Z,17.80
2022-08-17T18:21:15.811Z,17.70
2022-08-17T18:24:04.458Z,17.70
2022-08-17T18:26:42.087Z,17.70
2022-08-17T18:29:21.200Z,17.70
2022-08-17T18:31:48.329Z,17.60
2022-08-17T18:34:46.408Z,17.30
2022-08-17T18:37:30.119Z,17.10
2022-08-17T18:39:57.382Z,17.10
2022-08-17T18:42:29.167Z,17.30
2022-08-17T18:44:56.354Z,17.30
2022-08-17T18:47:28.672Z,17.40
2022-08-17T18:49:59.250Z,16.90
2022-08-17T18:52:30.709Z,16.70
2022-08-17T18:55:12.451Z,16.90
2022-08-17T18:57:45.822Z,17.20
2022-08-17T19:00:40.658Z,17.20
2022-08-17T19:03:28.582Z,17.10
2022-08-17T19:06:31.409Z,17.30
2022-08-17T19:08:59.599Z,17.30
2022-08-17T19:11:30.701Z,17.10
2022-08-17T19:14:06.753Z,17.20
2022-08-17T19:16:59.390Z,17.20
2022-08-17T19:19:31.142Z,17.20
2022-08-17T19:22:28.781Z,17.30
2022-08-17T19:25:09.301Z,17.30
2022-08-17T19:28:06.203Z,17.20
2022-08-17T19:30:50.544Z,16.90
2022-08-17T19:33:17.559Z,16.60
2022-08-17T19:36:29.524Z,16.50
2022-08-17T19:39:20.221Z,16.50
2022-08-17T19:42:03.260Z,16.60
2022-08-17T19:44:32.285Z,16.50
2022-08-17T19:47:53.253Z,16.30
2022-08-17T19:50:43.850Z,16.40
2022-08-17T19:53:47.812Z,15.90
2022-08-17T19:56:31.778Z,16.10
2022-08-17T19:59:07.922Z,16.00
2022-08-17T20:01:45.159Z,15.90
2022-08-17T20:04:35.673Z,16.00
2022-08-17T20:07:26.351Z,15.90
2022-08-17T20:10:02.724Z,15.90
2022-08-17T20:12:33.621Z,15.90
2022-08-17T20:15:05.926Z,15.90
2022-08-17T20:17:40.365Z,15.70
2022-08-17T20:20:35.111Z,15.90
2022-08-17T20:23:22.549Z,16.00
2022-08-17T20:26:19.057Z,16.00
2022-08-17T20:29:07.201Z,16.00
2022-08-17T20:31:49.787Z,15.80
2022-08-17T20:34:36.999Z,15.70
2022-08-17T20:37:15.704Z,15.70
2022-08-17T20:39:50.555Z,15.90
2022-08-17T20:42:20.601Z,15.80
2022-08-17T20:44:50.180Z,15.90
2022-08-17T20:47:27.583Z,16.00
2022-08-17T20:50:26.953Z,16.10
2022-08-17T20:53:00.978Z,16.10
2022-08-17T20:55:53.219Z,16.20
2022-08-17T20:58:30.624Z,16.20
2022-08-17T21:00:59.126Z,16.10
2022-08-17T21:03:39.993Z,16.10
2022-08-17T21:06:18.856Z,16.10
2022-08-17T21:08:54.662Z,15.70
2022-08-17T21:12:03.937Z,15.70
2022-08-17T21:14:56.306Z,15.40
2022-08-17T21:17:35.741Z,15.40
2022-08-17T21:20:21.529Z,15.30
2022-08-17T21:23:00.373Z,15.50
2022-08-17T21:25:48.400Z,15.40
2022-08-17T21:28:34.669Z,15.40
2022-08-17T21:31:09.160Z,15.20
2022-08-17T21:33:40.190Z,15.10
2022-08-17T21:36:13.890Z,15.20
2022-08-17T21:38:56.975Z,15.10
2022-08-17T21:41:33.580Z,15.00
2022-08-17T21:44:37.107Z,15.10
2022-08-17T21:47:26.620Z,15.00
2022-08-17T21:49:55.351Z,14.90
2022-08-17T21:52:26.973Z,15.10
2022-08-17T21:54:57.423Z,15.10
2022-08-17T21:57:28.947Z,15.20
2022-08-17T22:00:00.084Z,15.10
2022-08-17T22:02:38.275Z,15.20
2022-08-17T22:05:08.077Z,15.10
2022-08-17T22:07:50.727Z,14.90
2022-08-17T22:10:40.586Z,15.00
2022-08-17T22:13:18.085Z,15.10
2022-08-17T22:15:49.835Z,15.10
2022-08-17T22:18:27.577Z,15.20
2022-08-17T22:20:58.089Z,15.10
2022-08-17T22:23:54.735Z,15.00
2022-08-17T22:26:24.554Z,14.60
2022-08-17T22:28:56.549Z,14.60
2022-08-17T22:31:29.640Z,14.60
2022-08-17T22:33:59.991Z,14.60
2022-08-17T22:36:39.159Z,14.60
2022-08-17T22:39:09.134Z,14.50
2022-08-17T22:41:36.084Z,14.60
2022-08-17T22:44:18.051Z,14.80
2022-08-17T22:47:11.674Z,14.80
2022-08-17T22:49:53.321Z,14.90
2022-08-17T22:52:56.222Z,14.70
2022-08-17T22:55:42.889Z,14.80
2022-08-17T22:58:35.312Z,14.80
2022-08-17T23:01:32.739Z,14.70
2022-08-17T23:04:07.811Z,14.50
2022-08-17T23:06:36.811Z,14.30
2022-08-17T23:09:06.887Z,14.30
2022-08-17T23:11:49.527Z,14.10
2022-08-17T23:14:21.609Z,14.10
2022-08-17T23:16:50.413Z,14.10
2022-08-17T23:19:22.029Z,13.90
2022-08-17T23:21:55.444Z,13.90
2022-08-17T23:24:28.597Z,14.00
2022-08-17T23:26:59.810Z,14.00
2022-08-17T23:29:29.566Z,14.00
2022-08-17T23:32:00.069Z,14.20
2022-08-17T23:34:28.551Z,14.00
2022-08-17T23:36:55.844Z,14.10
2022-08-17T23:39:28.565Z,14.30
2022-08-17T23:42:00.306Z,14.30
2022-08-17T23:44:28.972Z,14.30
2022-08-17T23:46:57.145Z,14.40
2022-08-17T23:49:25.295Z,14.40
2022-08-17T23:51:54.819Z,14.50
2022-08-17T23:54:24.945Z,14.20
2022-08-17T23:56:51.939Z,14.30
2022-08-17T23:59:22.271Z,14.20
